sensor_id;sensor_type;location;lat;lon;timestamp;pressure;altitude;pressure_sealevel;temperature;humidity
24892;BME280;12954;50.688;10.908;2022-12-18T00:00:07;96729.34;;;-9.23;55.03
24892;BME280;12954;50.688;10.908;2022-12-18T00:02:37;96660.13;;;-9.89;54.87
24892;BME280;12954;50.688;10.908;2022-12-18T00:05:07;96656.00;;;-9.91;55.51
24892;BME280;12954;50.688;10.908;2022-12-18T00:07:35;96699.44;;;-9.60;55.37
24892;BME280;12954;50.688;10.908;2022-12-18T00:10:06;96739.16;;;-9.36;55.63
24892;BME280;12954;50.688;10.908;2022-12-18T00:12:34;96744.53;;;-9.37;55.76
24892;BME280;12954;50.688;10.908;2022-12-18T00:15:03;96718.03;;;-9.53;55.30
24892;BME280;12954;50.688;10.908;2022-12-18T00:17:32;96634.47;;;-10.04;55.40
24892;BME280;12954;50.688;10.908;2022-12-18T00:20:02;96721.66;;;-9.45;55.43
24892;BME280;12954;50.688;10.908;2022-12-18T00:22:31;96696.38;;;-9.65;55.36
24892;BME280;12954;50.688;10.908;2022-12-18T00:25:00;96750.56;;;-9.37;55.59
24892;BME280;12954;50.688;10.908;2022-12-18T00:27:28;96754.16;;;-9.38;55.46
24892;BME280;12954;50.688;10.908;2022-12-18T00:29:57;96734.97;;;-9.48;55.56
24892;BME280;12954;50.688;10.908;2022-12-18T00:32:26;96694.28;;;-9.71;55.58
24892;BME280;12954;50.688;10.908;2022-12-18T00:34:54;96756.03;;;-9.40;55.50
24892;BME280;12954;50.688;10.908;2022-12-18T00:37:24;96696.72;;;-9.79;55.65
24892;BME280;12954;50.688;10.908;2022-12-18T00:39:52;96742.22;;;-9.51;55.39
24892;BME280;12954;50.688;10.908;2022-12-18T00:42:21;96616.34;;;-10.27;55.43
24892;BME280;12954;50.688;10.908;2022-12-18T00:45:07;96754.66;;;-9.44;55.88
24892;BME280;12954;50.688;10.908;2022-12-18T00:47:39;96756.28;;;-9.43;56.02
24892;BME280;12954;50.688;10.908;2022-12-18T00:50:08;96771.28;;;-9.45;55.78
24892;BME280;12954;50.688;10.908;2022-12-18T00:52:38;96724.84;;;-9.62;55.79
24892;BME280;12954;50.688;10.908;2022-12-18T00:55:07;96753.00;;;-9.45;55.84
24892;BME280;12954;50.688;10.908;2022-12-18T00:57:35;96740.00;;;-9.56;55.90
24892;BME280;12954;50.688;10.908;2022-12-18T01:00:08;96728.97;;;-9.59;56.00
24892;BME280;12954;50.688;10.908;2022-12-18T01:02:37;96739.50;;;-9.50;55.91
24892;BME280;12954;50.688;10.908;2022-12-18T01:05:06;96711.34;;;-9.67;55.66
24892;BME280;12954;50.688;10.908;2022-12-18T01:07:34;96755.78;;;-9.37;55.97
24892;BME280;12954;50.688;10.908;2022-12-18T01:10:06;96770.25;;;-9.33;55.43
24892;BME280;12954;50.688;10.908;2022-12-18T01:12:35;96765.28;;;-9.36;55.83
24892;BME280;12954;50.688;10.908;2022-12-18T01:15:06;96748.59;;;-9.44;55.70
24892;BME280;12954;50.688;10.908;2022-12-18T01:17:35;96708.78;;;-9.78;55.96
24892;BME280;12954;50.688;10.908;2022-12-18T01:20:05;96771.47;;;-9.37;55.92
24892;BME280;12954;50.688;10.908;2022-12-18T01:22:34;96742.38;;;-9.53;56.08
24892;BME280;12954;50.688;10.908;2022-12-18T01:25:04;96756.28;;;-9.43;56.04
24892;BME280;12954;50.688;10.908;2022-12-18T01:27:34;96766.25;;;-9.37;55.81
24892;BME280;12954;50.688;10.908;2022-12-18T01:30:03;96782.81;;;-9.27;55.86
24892;BME280;12954;50.688;10.908;2022-12-18T01:32:32;96751.72;;;-9.50;55.91
24892;BME280;12954;50.688;10.908;2022-12-18T01:35:01;96750.63;;;-9.48;55.91
24892;BME280;12954;50.688;10.908;2022-12-18T01:37:30;96689.25;;;-10.04;55.91
24892;BME280;12954;50.688;10.908;2022-12-18T01:39:58;96781.66;;;-9.34;56.20
24892;BME280;12954;50.688;10.908;2022-12-18T01:42:28;96753.75;;;-9.54;55.65
24892;BME280;12954;50.688;10.908;2022-12-18T01:45:00;96781.09;;;-9.37;56.55
24892;BME280;12954;50.688;10.908;2022-12-18T01:47:33;96783.19;;;-9.31;55.68
24892;BME280;12954;50.688;10.908;2022-12-18T01:50:05;96746.66;;;-9.52;56.02
24892;BME280;12954;50.688;10.908;2022-12-18T01:52:35;96782.22;;;-9.30;56.03
24892;BME280;12954;50.688;10.908;2022-12-18T01:55:06;96726.69;;;-9.74;56.24
24892;BME280;12954;50.688;10.908;2022-12-18T01:57:37;96710.97;;;-9.83;56.56
24892;BME280;12954;50.688;10.908;2022-12-18T02:00:09;96742.97;;;-9.60;56.34
24892;BME280;12954;50.688;10.908;2022-12-18T02:02:39;96791.47;;;-9.26;56.61
24892;BME280;12954;50.688;10.908;2022-12-18T02:05:08;96783.38;;;-9.23;55.99
24892;BME280;12954;50.688;10.908;2022-12-18T02:07:42;96779.75;;;-9.32;56.10
24892;BME280;12954;50.688;10.908;2022-12-18T02:10:21;96759.38;;;-9.38;56.42
24892;BME280;12954;50.688;10.908;2022-12-18T02:12:59;96793.69;;;-9.22;56.03
24892;BME280;12954;50.688;10.908;2022-12-18T02:15:36;96797.03;;;-9.20;56.59
24892;BME280;12954;50.688;10.908;2022-12-18T02:18:11;96702.63;;;-9.77;56.46
24892;BME280;12954;50.688;10.908;2022-12-18T02:20:44;96797.84;;;-9.19;56.66
24892;BME280;12954;50.688;10.908;2022-12-18T02:23:31;96783.13;;;-9.20;56.61
24892;BME280;12954;50.688;10.908;2022-12-18T02:26:15;96789.75;;;-9.16;56.62
24892;BME280;12954;50.688;10.908;2022-12-18T02:28:52;96696.03;;;-9.81;56.51
24892;BME280;12954;50.688;10.908;2022-12-18T02:31:24;96799.50;;;-9.18;56.33
24892;BME280;12954;50.688;10.908;2022-12-18T02:33:56;96786.03;;;-9.14;56.02
24892;BME280;12954;50.688;10.908;2022-12-18T02:36:26;96779.25;;;-9.26;56.08
24892;BME280;12954;50.688;10.908;2022-12-18T02:38:56;96768.97;;;-9.18;56.44
24892;BME280;12954;50.688;10.908;2022-12-18T02:41:29;96741.16;;;-9.49;56.46
24892;BME280;12954;50.688;10.908;2022-12-18T02:44:01;96731.53;;;-9.48;56.51
24892;BME280;12954;50.688;10.908;2022-12-18T02:46:36;96753.63;;;-9.32;56.25
24892;BME280;12954;50.688;10.908;2022-12-18T02:49:14;96758.97;;;-9.33;56.06
24892;BME280;12954;50.688;10.908;2022-12-18T02:51:51;96751.31;;;-9.46;56.67
24892;BME280;12954;50.688;10.908;2022-12-18T02:54:31;96775.28;;;-9.20;56.21
24892;BME280;12954;50.688;10.908;2022-12-18T02:57:14;96785.16;;;-9.24;56.37
24892;BME280;12954;50.688;10.908;2022-12-18T02:59:49;96786.84;;;-9.23;56.35
24892;BME280;12954;50.688;10.908;2022-12-18T03:02:25;96762.09;;;-9.39;56.52
24892;BME280;12954;50.688;10.908;2022-12-18T03:05:02;96782.38;;;-9.32;56.77
24892;BME280;12954;50.688;10.908;2022-12-18T03:07:37;96666.34;;;-10.01;56.69
24892;BME280;12954;50.688;10.908;2022-12-18T03:10:09;96777.84;;;-9.30;56.21
24892;BME280;12954;50.688;10.908;2022-12-18T03:12:44;96751.22;;;-9.44;56.47
24892;BME280;12954;50.688;10.908;2022-12-18T03:15:18;96772.88;;;-9.33;56.69
24892;BME280;12954;50.688;10.908;2022-12-18T03:17:57;96771.19;;;-9.34;56.28
24892;BME280;12954;50.688;10.908;2022-12-18T03:20:30;96715.81;;;-9.79;56.62
24892;BME280;12954;50.688;10.908;2022-12-18T03:23:06;96783.56;;;-9.36;56.27
24892;BME280;12954;50.688;10.908;2022-12-18T03:25:39;96753.25;;;-9.48;56.09
24892;BME280;12954;50.688;10.908;2022-12-18T03:28:12;96773.06;;;-9.45;56.20
24892;BME280;12954;50.688;10.908;2022-12-18T03:30:43;96785.25;;;-9.35;56.37
24892;BME280;12954;50.688;10.908;2022-12-18T03:33:16;96763.84;;;-9.49;56.76
24892;BME280;12954;50.688;10.908;2022-12-18T03:35:47;96673.84;;;-10.07;56.29
24892;BME280;12954;50.688;10.908;2022-12-18T03:38:16;96789.25;;;-9.31;56.76
24892;BME280;12954;50.688;10.908;2022-12-18T03:40:51;96768.41;;;-9.42;56.06
24892;BME280;12954;50.688;10.908;2022-12-18T03:43:29;96789.50;;;-9.34;56.35
24892;BME280;12954;50.688;10.908;2022-12-18T03:46:06;96794.84;;;-9.35;56.82
24892;BME280;12954;50.688;10.908;2022-12-18T03:48:39;96756.44;;;-9.65;56.34
24892;BME280;12954;50.688;10.908;2022-12-18T03:51:13;96746.66;;;-9.93;56.61
24892;BME280;12954;50.688;10.908;2022-12-18T03:53:49;96766.94;;;-9.55;56.46
24892;BME280;12954;50.688;10.908;2022-12-18T03:56:21;96797.47;;;-9.35;56.56
24892;BME280;12954;50.688;10.908;2022-12-18T03:58:53;96720.91;;;-9.77;56.31
24892;BME280;12954;50.688;10.908;2022-12-18T04:01:25;96599.34;;;-10.42;56.17
24892;BME280;12954;50.688;10.908;2022-12-18T04:03:59;96786.19;;;-9.36;56.38
24892;BME280;12954;50.688;10.908;2022-12-18T04:06:29;96722.66;;;-9.78;56.54
24892;BME280;12954;50.688;10.908;2022-12-18T04:08:58;96779.38;;;-9.48;56.58
24892;BME280;12954;50.688;10.908;2022-12-18T04:11:27;96789.75;;;-9.37;56.24
24892;BME280;12954;50.688;10.908;2022-12-18T04:13:58;96714.53;;;-9.84;56.69
24892;BME280;12954;50.688;10.908;2022-12-18T04:16:31;96787.63;;;-9.43;56.22
24892;BME280;12954;50.688;10.908;2022-12-18T04:19:00;96777.19;;;-9.43;56.94
24892;BME280;12954;50.688;10.908;2022-12-18T04:21:28;96782.16;;;-9.40;56.53
24892;BME280;12954;50.688;10.908;2022-12-18T04:23:57;96783.66;;;-9.47;56.46
24892;BME280;12954;50.688;10.908;2022-12-18T04:26:25;96793.94;;;-9.45;56.23
24892;BME280;12954;50.688;10.908;2022-12-18T04:28:53;96784.72;;;-9.49;56.76
24892;BME280;12954;50.688;10.908;2022-12-18T04:31:23;96789.81;;;-9.48;56.41
24892;BME280;12954;50.688;10.908;2022-12-18T04:33:52;96783.91;;;-9.50;56.37
24892;BME280;12954;50.688;10.908;2022-12-18T04:36:20;96657.63;;;-10.32;55.90
24892;BME280;12954;50.688;10.908;2022-12-18T04:38:49;96788.44;;;-9.52;55.92
24892;BME280;12954;50.688;10.908;2022-12-18T04:41:17;96760.13;;;-9.68;56.64
24892;BME280;12954;50.688;10.908;2022-12-18T04:43:46;96745.31;;;-9.78;56.00
24892;BME280;12954;50.688;10.908;2022-12-18T04:46:14;96676.06;;;-10.23;56.13
24892;BME280;12954;50.688;10.908;2022-12-18T04:48:45;96789.47;;;-9.54;55.84
24892;BME280;12954;50.688;10.908;2022-12-18T04:51:14;96716.06;;;-10.02;56.36
24892;BME280;12954;50.688;10.908;2022-12-18T04:53:50;96744.03;;;-9.93;56.11
24892;BME280;12954;50.688;10.908;2022-12-18T04:56:18;96797.13;;;-9.62;56.61
24892;BME280;12954;50.688;10.908;2022-12-18T04:58:47;96724.25;;;-10.07;56.15
24892;BME280;12954;50.688;10.908;2022-12-18T05:01:17;96800.56;;;-9.62;56.06
24892;BME280;12954;50.688;10.908;2022-12-18T05:03:47;96784.00;;;-9.72;56.04
24892;BME280;12954;50.688;10.908;2022-12-18T05:06:16;96743.31;;;-9.95;55.93
24892;BME280;12954;50.688;10.908;2022-12-18T05:08:44;96771.28;;;-9.86;56.13
24892;BME280;12954;50.688;10.908;2022-12-18T05:11:14;96809.56;;;-9.55;56.44
24892;BME280;12954;50.688;10.908;2022-12-18T05:13:44;96815.75;;;-9.56;55.79
24892;BME280;12954;50.688;10.908;2022-12-18T05:16:14;96780.81;;;-9.76;56.00
24892;BME280;12954;50.688;10.908;2022-12-18T05:18:43;96802.69;;;-9.56;55.92
24892;BME280;12954;50.688;10.908;2022-12-18T05:21:13;96794.16;;;-9.58;56.35
24892;BME280;12954;50.688;10.908;2022-12-18T05:23:42;96792.50;;;-9.59;56.22
24892;BME280;12954;50.688;10.908;2022-12-18T05:26:15;96700.00;;;-10.18;55.83
24892;BME280;12954;50.688;10.908;2022-12-18T05:28:44;96803.63;;;-9.57;56.33
24892;BME280;12954;50.688;10.908;2022-12-18T05:31:13;96769.53;;;-9.76;56.70
24892;BME280;12954;50.688;10.908;2022-12-18T05:33:42;96794.84;;;-9.56;56.65
24892;BME280;12954;50.688;10.908;2022-12-18T05:36:10;96764.91;;;-9.73;56.28
24892;BME280;12954;50.688;10.908;2022-12-18T05:38:41;96763.81;;;-9.70;56.11
24892;BME280;12954;50.688;10.908;2022-12-18T05:41:09;96791.28;;;-9.55;56.02
24892;BME280;12954;50.688;10.908;2022-12-18T05:43:39;96765.16;;;-9.76;56.26
24892;BME280;12954;50.688;10.908;2022-12-18T05:46:11;96780.06;;;-9.67;56.30
24892;BME280;12954;50.688;10.908;2022-12-18T05:48:40;96779.94;;;-9.65;56.21
24892;BME280;12954;50.688;10.908;2022-12-18T05:51:10;96800.75;;;-9.54;56.29
24892;BME280;12954;50.688;10.908;2022-12-18T05:53:41;96731.59;;;-10.01;56.11
24892;BME280;12954;50.688;10.908;2022-12-18T05:56:13;96811.94;;;-9.52;56.53
24892;BME280;12954;50.688;10.908;2022-12-18T05:58:42;96801.59;;;-9.53;56.72
24892;BME280;12954;50.688;10.908;2022-12-18T06:01:13;96785.16;;;-9.65;56.04
24892;BME280;12954;50.688;10.908;2022-12-18T06:03:42;96821.16;;;-9.48;56.31
24892;BME280;12954;50.688;10.908;2022-12-18T06:06:16;96802.84;;;-9.69;56.67
24892;BME280;12954;50.688;10.908;2022-12-18T06:08:46;96783.63;;;-9.68;56.41
24892;BME280;12954;50.688;10.908;2022-12-18T06:11:18;96813.31;;;-9.48;56.42
24892;BME280;12954;50.688;10.908;2022-12-18T06:13:49;96818.53;;;-9.48;56.72
24892;BME280;12954;50.688;10.908;2022-12-18T06:16:24;96722.38;;;-10.05;56.96
24892;BME280;12954;50.688;10.908;2022-12-18T06:18:52;96817.34;;;-9.44;56.94
24892;BME280;12954;50.688;10.908;2022-12-18T06:21:21;96710.13;;;-10.04;56.54
24892;BME280;12954;50.688;10.908;2022-12-18T06:23:51;96749.44;;;-9.85;56.51
24892;BME280;12954;50.688;10.908;2022-12-18T06:26:20;96820.66;;;-9.42;56.85
24892;BME280;12954;50.688;10.908;2022-12-18T06:28:54;96820.41;;;-9.39;56.82
24892;BME280;12954;50.688;10.908;2022-12-18T06:31:22;96821.81;;;-9.35;56.75
24892;BME280;12954;50.688;10.908;2022-12-18T06:33:51;96821.56;;;-9.32;56.74
24892;BME280;12954;50.688;10.908;2022-12-18T06:36:20;96791.03;;;-9.52;56.64
24892;BME280;12954;50.688;10.908;2022-12-18T06:38:48;96764.53;;;-9.68;56.53
24892;BME280;12954;50.688;10.908;2022-12-18T06:41:20;96823.53;;;-9.24;57.37
24892;BME280;12954;50.688;10.908;2022-12-18T06:43:49;96770.25;;;-9.53;56.86
24892;BME280;12954;50.688;10.908;2022-12-18T06:46:23;96644.78;;;-10.23;57.09
24892;BME280;12954;50.688;10.908;2022-12-18T06:48:52;96813.84;;;-9.13;56.94
24892;BME280;12954;50.688;10.908;2022-12-18T06:51:22;96803.81;;;-9.07;56.95
24892;BME280;12954;50.688;10.908;2022-12-18T06:53:50;96807.16;;;-9.05;57.17
24892;BME280;12954;50.688;10.908;2022-12-18T06:56:20;96786.88;;;-9.13;56.85
24892;BME280;12954;50.688;10.908;2022-12-18T06:58:50;96753.91;;;-9.35;57.55
24892;BME280;12954;50.688;10.908;2022-12-18T07:01:18;96721.72;;;-9.56;57.06
24892;BME280;12954;50.688;10.908;2022-12-18T07:03:51;96801.78;;;-9.04;57.34
24892;BME280;12954;50.688;10.908;2022-12-18T07:06:22;96797.38;;;-9.03;57.27
24892;BME280;12954;50.688;10.908;2022-12-18T07:08:51;96723.06;;;-9.41;56.77
24892;BME280;12954;50.688;10.908;2022-12-18T07:11:21;96768.84;;;-9.16;57.11
24892;BME280;12954;50.688;10.908;2022-12-18T07:13:50;96807.75;;;-8.92;57.21
24892;BME280;12954;50.688;10.908;2022-12-18T07:16:19;96786.50;;;-9.08;56.92
24892;BME280;12954;50.688;10.908;2022-12-18T07:18:51;96811.91;;;-8.90;56.92
24892;BME280;12954;50.688;10.908;2022-12-18T07:21:20;96825.94;;;-8.91;57.23
24892;BME280;12954;50.688;10.908;2022-12-18T07:23:49;96826.25;;;-8.84;57.32
24892;BME280;12954;50.688;10.908;2022-12-18T07:26:21;96833.56;;;-8.78;57.00
24892;BME280;12954;50.688;10.908;2022-12-18T07:28:50;96816.94;;;-8.98;57.13
24892;BME280;12954;50.688;10.908;2022-12-18T07:31:22;96836.44;;;-8.81;57.53
24892;BME280;12954;50.688;10.908;2022-12-18T07:33:52;96846.38;;;-8.75;57.07
24892;BME280;12954;50.688;10.908;2022-12-18T07:36:20;96844.47;;;-8.73;57.55
24892;BME280;12954;50.688;10.908;2022-12-18T07:38:51;96841.88;;;-8.73;57.15
24892;BME280;12954;50.688;10.908;2022-12-18T07:41:21;96793.25;;;-9.06;57.14
24892;BME280;12954;50.688;10.908;2022-12-18T07:43:50;96861.41;;;-8.47;56.75
24892;BME280;12954;50.688;10.908;2022-12-18T07:46:19;96864.97;;;-8.48;57.89
24892;BME280;12954;50.688;10.908;2022-12-18T07:48:47;96865.84;;;-8.38;57.30
24892;BME280;12954;50.688;10.908;2022-12-18T07:51:17;96870.00;;;-8.35;57.36
24892;BME280;12954;50.688;10.908;2022-12-18T07:53:46;96875.78;;;-8.32;57.29
24892;BME280;12954;50.688;10.908;2022-12-18T07:56:18;96802.06;;;-8.77;57.38
24892;BME280;12954;50.688;10.908;2022-12-18T07:58:58;96870.03;;;-8.26;57.61
24892;BME280;12954;50.688;10.908;2022-12-18T08:01:29;96827.75;;;-8.61;57.47
24892;BME280;12954;50.688;10.908;2022-12-18T08:03:58;96790.09;;;-8.79;57.36
24892;BME280;12954;50.688;10.908;2022-12-18T08:06:26;96864.22;;;-8.29;57.53
24892;BME280;12954;50.688;10.908;2022-12-18T08:08:56;96864.16;;;-8.09;57.71
24892;BME280;12954;50.688;10.908;2022-12-18T08:11:26;96834.38;;;-8.17;57.29
24892;BME280;12954;50.688;10.908;2022-12-18T08:13:55;96891.66;;;-7.84;58.10
24892;BME280;12954;50.688;10.908;2022-12-18T08:16:25;96860.22;;;-7.93;57.88
24892;BME280;12954;50.688;10.908;2022-12-18T08:18:54;96770.22;;;-8.52;58.07
24892;BME280;12954;50.688;10.908;2022-12-18T08:21:24;96881.78;;;-7.61;57.95
24892;BME280;12954;50.688;10.908;2022-12-18T08:23:54;96887.72;;;-7.50;57.89
24892;BME280;12954;50.688;10.908;2022-12-18T08:26:25;96856.13;;;-7.48;58.09
24892;BME280;12954;50.688;10.908;2022-12-18T08:28:54;96812.56;;;-7.68;58.27
24892;BME280;12954;50.688;10.908;2022-12-18T08:31:25;96863.03;;;-7.38;58.04
24892;BME280;12954;50.688;10.908;2022-12-18T08:33:54;96832.72;;;-7.50;58.20
24892;BME280;12954;50.688;10.908;2022-12-18T08:36:23;96829.53;;;-7.53;58.36
24892;BME280;12954;50.688;10.908;2022-12-18T08:38:53;96794.22;;;-7.68;58.52
24892;BME280;12954;50.688;10.908;2022-12-18T08:41:22;96834.06;;;-7.36;58.28
24892;BME280;12954;50.688;10.908;2022-12-18T08:43:51;96855.28;;;-7.20;58.55
24892;BME280;12954;50.688;10.908;2022-12-18T08:46:39;96850.63;;;-7.16;58.27
24892;BME280;12954;50.688;10.908;2022-12-18T08:49:09;96780.56;;;-7.53;58.63
24892;BME280;12954;50.688;10.908;2022-12-18T08:51:38;96847.84;;;-7.05;58.61
24892;BME280;12954;50.688;10.908;2022-12-18T08:54:08;96857.38;;;-7.04;58.80
24892;BME280;12954;50.688;10.908;2022-12-18T08:56:38;96816.81;;;-7.19;58.31
24892;BME280;12954;50.688;10.908;2022-12-18T08:59:08;96830.59;;;-6.98;58.69
24892;BME280;12954;50.688;10.908;2022-12-18T09:01:47;96854.16;;;-6.79;58.75
24892;BME280;12954;50.688;10.908;2022-12-18T09:04:16;96850.84;;;-6.71;58.83
24892;BME280;12954;50.688;10.908;2022-12-18T09:06:46;96843.06;;;-6.63;58.61
24892;BME280;12954;50.688;10.908;2022-12-18T09:09:14;96828.44;;;-6.66;58.61
24892;BME280;12954;50.688;10.908;2022-12-18T09:11:43;96570.56;;;-8.14;58.33
24892;BME280;12954;50.688;10.908;2022-12-18T09:14:11;96851.56;;;-6.42;58.65
24892;BME280;12954;50.688;10.908;2022-12-18T09:16:40;96860.94;;;-6.30;58.46
24892;BME280;12954;50.688;10.908;2022-12-18T09:19:10;96835.09;;;-6.35;58.25
24892;BME280;12954;50.688;10.908;2022-12-18T09:21:39;96790.25;;;-6.41;58.09
24892;BME280;12954;50.688;10.908;2022-12-18T09:24:14;96842.56;;;-6.03;58.34
24892;BME280;12954;50.688;10.908;2022-12-18T09:26:43;96847.63;;;-5.92;58.20
24892;BME280;12954;50.688;10.908;2022-12-18T09:29:14;96838.31;;;-5.86;58.34
24892;BME280;12954;50.688;10.908;2022-12-18T09:31:44;96830.56;;;-5.88;58.12
24892;BME280;12954;50.688;10.908;2022-12-18T09:34:14;96831.28;;;-5.86;58.24
24892;BME280;12954;50.688;10.908;2022-12-18T09:36:43;96798.59;;;-6.01;58.09
24892;BME280;12954;50.688;10.908;2022-12-18T09:39:13;96822.81;;;-5.62;58.35
24892;BME280;12954;50.688;10.908;2022-12-18T09:41:45;96825.34;;;-5.52;58.04
24892;BME280;12954;50.688;10.908;2022-12-18T09:44:19;96821.69;;;-5.42;58.03
24892;BME280;12954;50.688;10.908;2022-12-18T09:46:53;96818.31;;;-5.34;57.89
24892;BME280;12954;50.688;10.908;2022-12-18T09:49:27;96801.88;;;-5.36;58.09
24892;BME280;12954;50.688;10.908;2022-12-18T09:52:02;96774.22;;;-5.58;58.02
24892;BME280;12954;50.688;10.908;2022-12-18T09:54:34;96813.50;;;-5.03;57.99
24892;BME280;12954;50.688;10.908;2022-12-18T09:57:04;96820.81;;;-4.89;57.79
24892;BME280;12954;50.688;10.908;2022-12-18T09:59:36;96811.22;;;-4.73;56.90
24892;BME280;12954;50.688;10.908;2022-12-18T10:02:18;96789.50;;;-4.75;56.84
24892;BME280;12954;50.688;10.908;2022-12-18T10:05:00;96785.72;;;-4.72;56.71
24892;BME280;12954;50.688;10.908;2022-12-18T10:07:36;96817.00;;;-4.43;56.58
24892;BME280;12954;50.688;10.908;2022-12-18T10:10:16;96804.56;;;-4.33;56.48
24892;BME280;12954;50.688;10.908;2022-12-18T10:12:52;96787.09;;;-4.34;56.78
24892;BME280;12954;50.688;10.908;2022-12-18T10:15:34;96721.91;;;-4.74;55.82
24892;BME280;12954;50.688;10.908;2022-12-18T10:18:14;96805.16;;;-4.06;56.27
24892;BME280;12954;50.688;10.908;2022-12-18T10:20:52;96770.72;;;-4.12;56.03
24892;BME280;12954;50.688;10.908;2022-12-18T10:23:25;96744.38;;;-4.12;56.42
24892;BME280;12954;50.688;10.908;2022-12-18T10:25:59;96792.91;;;-3.73;55.86
24892;BME280;12954;50.688;10.908;2022-12-18T10:28:30;96795.22;;;-3.62;55.52
24892;BME280;12954;50.688;10.908;2022-12-18T10:31:00;96780.09;;;-3.68;55.25
24892;BME280;12954;50.688;10.908;2022-12-18T10:33:30;96785.72;;;-3.38;54.83
24892;BME280;12954;50.688;10.908;2022-12-18T10:36:00;96776.97;;;-3.39;54.89
24892;BME280;12954;50.688;10.908;2022-12-18T10:38:31;96783.72;;;-3.20;54.85
24892;BME280;12954;50.688;10.908;2022-12-18T10:41:02;96781.13;;;-3.12;54.47
24892;BME280;12954;50.688;10.908;2022-12-18T10:43:32;96742.19;;;-3.26;54.29
24892;BME280;12954;50.688;10.908;2022-12-18T10:46:07;96712.66;;;-3.38;53.57
24892;BME280;12954;50.688;10.908;2022-12-18T10:48:50;96775.47;;;-2.77;53.57
24892;BME280;12954;50.688;10.908;2022-12-18T10:51:23;96736.56;;;-2.99;52.87
24892;BME280;12954;50.688;10.908;2022-12-18T10:54:00;96782.38;;;-2.60;52.28
24892;BME280;12954;50.688;10.908;2022-12-18T10:56:32;96794.25;;;-2.56;51.58
24892;BME280;12954;50.688;10.908;2022-12-18T10:59:03;96788.63;;;-2.53;51.47
24892;BME280;12954;50.688;10.908;2022-12-18T11:01:47;96792.63;;;-2.57;51.05
24892;BME280;12954;50.688;10.908;2022-12-18T11:04:20;96784.00;;;-2.51;51.67
24892;BME280;12954;50.688;10.908;2022-12-18T11:06:59;96778.66;;;-2.35;51.64
24892;BME280;12954;50.688;10.908;2022-12-18T11:09:29;96787.25;;;-2.24;51.85
24892;BME280;12954;50.688;10.908;2022-12-18T11:12:01;96787.53;;;-2.19;51.49
24892;BME280;12954;50.688;10.908;2022-12-18T11:14:32;96774.66;;;-2.22;51.00
24892;BME280;12954;50.688;10.908;2022-12-18T11:17:01;96790.94;;;-1.95;50.35
24892;BME280;12954;50.688;10.908;2022-12-18T11:19:53;96765.94;;;-1.92;50.15
24892;BME280;12954;50.688;10.908;2022-12-18T11:22:26;96789.50;;;-1.75;50.03
24892;BME280;12954;50.688;10.908;2022-12-18T11:24:58;96788.13;;;-1.70;50.20
24892;BME280;12954;50.688;10.908;2022-12-18T11:27:48;96727.97;;;-1.99;50.07
24892;BME280;12954;50.688;10.908;2022-12-18T11:30:22;96795.88;;;-1.61;49.38
24892;BME280;12954;50.688;10.908;2022-12-18T11:32:53;96787.38;;;-1.56;49.91
24892;BME280;12954;50.688;10.908;2022-12-18T11:35:27;96804.72;;;-1.46;49.33
24892;BME280;12954;50.688;10.908;2022-12-18T11:38:06;96769.47;;;-1.46;47.27
24892;BME280;12954;50.688;10.908;2022-12-18T11:40:42;96779.91;;;-1.45;48.54
24892;BME280;12954;50.688;10.908;2022-12-18T11:43:15;96786.81;;;-1.44;48.75
24892;BME280;12954;50.688;10.908;2022-12-18T11:45:50;96777.06;;;-1.43;48.39
24892;BME280;12954;50.688;10.908;2022-12-18T11:48:23;96778.88;;;-1.44;48.57
24892;BME280;12954;50.688;10.908;2022-12-18T11:50:55;96766.00;;;-1.47;48.34
24892;BME280;12954;50.688;10.908;2022-12-18T11:53:27;96770.81;;;-1.50;48.40
24892;BME280;12954;50.688;10.908;2022-12-18T11:56:04;96746.91;;;-1.57;47.90
24892;BME280;12954;50.688;10.908;2022-12-18T11:58:53;96732.25;;;-1.67;47.30
24892;BME280;12954;50.688;10.908;2022-12-18T12:01:35;96753.53;;;-1.61;47.96
24892;BME280;12954;50.688;10.908;2022-12-18T12:04:48;96745.66;;;-1.69;47.67
24892;BME280;12954;50.688;10.908;2022-12-18T12:07:29;96744.63;;;-1.68;47.45
24892;BME280;12954;50.688;10.908;2022-12-18T12:10:12;96721.59;;;-1.82;47.91
24892;BME280;12954;50.688;10.908;2022-12-18T12:13:05;96717.91;;;-1.73;47.42
24892;BME280;12954;50.688;10.908;2022-12-18T12:15:44;96720.84;;;-1.68;47.32
24892;BME280;12954;50.688;10.908;2022-12-18T12:18:24;96718.03;;;-1.66;47.09
24892;BME280;12954;50.688;10.908;2022-12-18T12:21:03;96696.16;;;-1.83;47.48
24892;BME280;12954;50.688;10.908;2022-12-18T12:23:40;96706.03;;;-1.77;47.09
24892;BME280;12954;50.688;10.908;2022-12-18T12:26:16;96718.19;;;-1.68;47.57
24892;BME280;12954;50.688;10.908;2022-12-18T12:29:01;96738.34;;;-1.67;47.09
24892;BME280;12954;50.688;10.908;2022-12-18T12:31:54;96741.66;;;-1.65;47.01
24892;BME280;12954;50.688;10.908;2022-12-18T12:34:30;96678.72;;;-2.00;47.06
24892;BME280;12954;50.688;10.908;2022-12-18T12:37:13;96734.38;;;-1.63;46.77
24892;BME280;12954;50.688;10.908;2022-12-18T12:39:44;96717.06;;;-1.74;46.25
24892;BME280;12954;50.688;10.908;2022-12-18T12:42:20;96663.25;;;-2.11;45.45
24892;BME280;12954;50.688;10.908;2022-12-18T12:45:15;96729.31;;;-1.72;46.41
24892;BME280;12954;50.688;10.908;2022-12-18T12:47:45;96723.44;;;-1.60;46.48
24892;BME280;12954;50.688;10.908;2022-12-18T12:50:18;96724.28;;;-1.59;46.50
24892;BME280;12954;50.688;10.908;2022-12-18T12:52:51;96724.72;;;-1.56;46.45
24892;BME280;12954;50.688;10.908;2022-12-18T12:55:23;96717.81;;;-1.57;46.20
24892;BME280;12954;50.688;10.908;2022-12-18T12:58:01;96714.63;;;-1.52;45.71
24892;BME280;12954;50.688;10.908;2022-12-18T13:00:38;96713.44;;;-1.50;45.82
24892;BME280;12954;50.688;10.908;2022-12-18T13:03:12;96703.31;;;-1.46;45.62
24892;BME280;12954;50.688;10.908;2022-12-18T13:05:48;96701.56;;;-1.54;45.72
24892;BME280;12954;50.688;10.908;2022-12-18T13:08:23;96698.84;;;-1.46;45.15
24892;BME280;12954;50.688;10.908;2022-12-18T13:10:53;96690.03;;;-1.61;45.25
24892;BME280;12954;50.688;10.908;2022-12-18T13:14:20;96646.53;;;-1.58;44.69
24892;BME280;12954;50.688;10.908;2022-12-18T13:16:50;96681.09;;;-1.37;44.46